Detroit Metropolitan Wayne County Airport
KDTW : now visible

Airfield :











YOU CAN JOIN US ON...

 
LOGIN :

Register | Disclaimer

   EN    FR    IT 

 









Legend :    VFR   Marginal VFR   IFR   Intensive IFR   Very Intensive IFR
Visi :
Ceiling :
>= 8 km
>= 3000ft
5 to 8 km
1000 to 3000 ft
1500m to 5 km
500 to 1000 ft
800 to 1500m
200 to 500 ft
< 800m
< 200 ft
Symbols :   Thunderstorms  Fog  Heavy snow  Heavy precipitations  Wind > 20 kt






- Airport Elevation : 645 ft
- IATA code : DTW


KDTW - Detroit Metropolitan Wayne County

CURRENT METAR :
  • 261711Z 02008KT 1 3/4SM -SN BR OVC012 00/M02 A2987 RMK AO2 TWR VIS 4 SNB00 P0000 T00001022

EXPIRED METARs :
  • 261658Z 02010KT 7SM OVC012 00/M02 A2988 RMK AO2 T00001022
  • 261653Z 01011KT 2SM OVC014 00/M02 A2987 RMK AO2 SFC VIS 7 SNE51 SLP122 P0000 T00001017
  • 261553Z 03010G19KT 2SM -SN BR OVC011 M01/M02 A2989 RMK AO2 SLP128 P0000 T10061017
  • 261510Z 02010KT 1 1/2SM -SN BR OVC011 M01/M02 A2990 RMK AO2 TWR VIS 2 P0000 T10061017
  • 261453Z 01009KT 1SM R03R/P6000FT -SN BR BKN008 OVC015 M01/M02 A2991 RMK AO2 TWR VIS 2 SLP134 P0002 60004 T10061017 58003 $
  • 261438Z 02008KT 1SM R03R/P6000FT -SN BR BKN008 OVC015 M01/M02 A2993 RMK AO2 TWR VIS 2 P0001 T10061017 $

TAF KDTW
Valid from the 26 at 15:00 until the 27 at 18:00 UTC


261501Z 2615/2718 01011KT 1 1/2SM -SN BR BKN006 OVC012
FM261800 35012KT 1SM -SN BR BKN004 OVC008
FM270000 33014G24KT P6SM -SHSN OVC020
FM270500 31016G25KT P6SM OVC025
FM271400 28018G28KT P6SM SCT025 OVC035



MET'MAP, your aeronautical weather chart ! - Copyright ORBIFLY December 2007 - Disclaimer

ORBIFLY MET'MAP TEAM :

Programming & Development : Alexandra Zaïnal
Concept & original design : Baudouin d'Aumeries
Assistance for programming : Marc-Olivier Méhu
Technical & hardware support : Manuel Goepfert

Contact : metmap@orbifly.com




SOURCES & CREDITS :

   NOAA       Earth
Advisory